sensor_id;sensor_type;location;lat;lon;timestamp;pressure;altitude;pressure_sealevel;temperature;humidity
7584;BME280;3833;41.764;26.204;2023-03-11T00:00:50;97329.47;;;14.41;100.00
7584;BME280;3833;41.764;26.204;2023-03-11T00:03:18;97296.63;;;14.29;100.00
7584;BME280;3833;41.764;26.204;2023-03-11T00:05:47;97346.63;;;14.68;100.00
7584;BME280;3833;41.764;26.204;2023-03-11T00:08:16;97348.91;;;14.63;100.00
7584;BME280;3833;41.764;26.204;2023-03-11T00:10:45;97345.28;;;14.64;100.00
7584;BME280;3833;41.764;26.204;2023-03-11T00:13:15;97338.72;;;14.60;100.00
7584;BME280;3833;41.764;26.204;2023-03-11T00:15:44;97288.38;;;14.16;100.00
7584;BME280;3833;41.764;26.204;2023-03-11T00:18:11;97340.31;;;14.46;100.00
7584;BME280;3833;41.764;26.204;2023-03-11T00:20:40;97339.66;;;14.44;100.00
7584;BME280;3833;41.764;26.204;2023-03-11T00:23:09;97329.00;;;14.45;100.00
7584;BME280;3833;41.764;26.204;2023-03-11T00:25:37;97307.91;;;14.29;100.00
7584;BME280;3833;41.764;26.204;2023-03-11T00:28:06;97288.25;;;14.33;100.00
7584;BME280;3833;41.764;26.204;2023-03-11T00:30:35;97290.38;;;14.30;100.00
7584;BME280;3833;41.764;26.204;2023-03-11T00:33:02;97281.41;;;14.40;100.00
7584;BME280;3833;41.764;26.204;2023-03-11T00:35:31;97286.16;;;14.45;100.00
7584;BME280;3833;41.764;26.204;2023-03-11T00:38:00;97170.50;;;13.81;100.00
7584;BME280;3833;41.764;26.204;2023-03-11T00:40:29;97279.91;;;14.38;100.00
7584;BME280;3833;41.764;26.204;2023-03-11T00:42:56;97289.47;;;14.55;100.00
7584;BME280;3833;41.764;26.204;2023-03-11T00:45:25;97294.72;;;14.55;100.00
7584;BME280;3833;41.764;26.204;2023-03-11T00:47:53;97226.38;;;14.15;100.00
7584;BME280;3833;41.764;26.204;2023-03-11T00:50:21;97285.19;;;14.46;100.00
7584;BME280;3833;41.764;26.204;2023-03-11T00:52:49;97274.63;;;14.30;100.00
7584;BME280;3833;41.764;26.204;2023-03-11T00:55:18;97270.38;;;14.29;100.00
7584;BME280;3833;41.764;26.204;2023-03-11T00:57:45;97268.56;;;14.21;100.00
7584;BME280;3833;41.764;26.204;2023-03-11T01:00:14;97256.28;;;14.30;100.00
7584;BME280;3833;41.764;26.204;2023-03-11T01:02:43;97241.31;;;14.22;100.00
7584;BME280;3833;41.764;26.204;2023-03-11T01:05:10;97128.13;;;13.60;100.00
7584;BME280;3833;41.764;26.204;2023-03-11T01:07:37;97219.66;;;14.20;100.00
7584;BME280;3833;41.764;26.204;2023-03-11T01:10:06;97094.03;;;13.44;100.00
7584;BME280;3833;41.764;26.204;2023-03-11T01:12:33;97215.34;;;14.11;100.00
7584;BME280;3833;41.764;26.204;2023-03-11T01:15:00;97162.78;;;13.87;100.00
7584;BME280;3833;41.764;26.204;2023-03-11T01:17:27;97186.34;;;14.21;100.00
7584;BME280;3833;41.764;26.204;2023-03-11T01:19:55;97172.38;;;14.12;100.00
7584;BME280;3833;41.764;26.204;2023-03-11T01:22:23;97163.69;;;14.12;100.00
7584;BME280;3833;41.764;26.204;2023-03-11T01:24:49;97161.09;;;14.20;100.00
7584;BME280;3833;41.764;26.204;2023-03-11T01:27:16;97152.41;;;14.27;100.00
7584;BME280;3833;41.764;26.204;2023-03-11T01:29:43;97137.47;;;14.12;100.00
7584;BME280;3833;41.764;26.204;2023-03-11T01:32:10;97087.09;;;14.00;100.00
7584;BME280;3833;41.764;26.204;2023-03-11T01:34:37;97132.22;;;14.20;100.00
7584;BME280;3833;41.764;26.204;2023-03-11T01:37:05;97127.00;;;14.28;100.00
7584;BME280;3833;41.764;26.204;2023-03-11T01:39:32;97086.47;;;14.14;100.00
7584;BME280;3833;41.764;26.204;2023-03-11T01:42:00;97120.13;;;14.35;100.00
7584;BME280;3833;41.764;26.204;2023-03-11T01:44:27;97090.09;;;14.13;100.00
7584;BME280;3833;41.764;26.204;2023-03-11T01:47:32;97115.88;;;14.34;100.00
7584;BME280;3833;41.764;26.204;2023-03-11T01:50:00;97127.34;;;14.57;100.00
7584;BME280;3833;41.764;26.204;2023-03-11T01:52:29;97094.34;;;14.30;100.00
7584;BME280;3833;41.764;26.204;2023-03-11T01:54:56;97133.56;;;14.40;100.00
7584;BME280;3833;41.764;26.204;2023-03-11T01:57:23;97077.41;;;14.01;100.00
7584;BME280;3833;41.764;26.204;2023-03-11T01:59:53;97115.34;;;14.30;100.00
7584;BME280;3833;41.764;26.204;2023-03-11T02:02:25;97147.69;;;14.31;100.00
7584;BME280;3833;41.764;26.204;2023-03-11T02:04:54;97149.66;;;14.37;100.00
7584;BME280;3833;41.764;26.204;2023-03-11T02:07:21;97148.75;;;14.12;100.00
7584;BME280;3833;41.764;26.204;2023-03-11T02:09:49;97142.44;;;14.31;100.00
7584;BME280;3833;41.764;26.204;2023-03-11T02:12:16;97099.78;;;14.13;100.00
7584;BME280;3833;41.764;26.204;2023-03-11T02:14:45;97144.72;;;14.26;100.00
7584;BME280;3833;41.764;26.204;2023-03-11T02:17:13;97142.72;;;14.12;100.00
7584;BME280;3833;41.764;26.204;2023-03-11T02:22:41;97123.22;;;13.57;100.00
7584;BME280;3833;41.764;26.204;2023-03-11T02:25:17;97108.16;;;13.59;100.00
7584;BME280;3833;41.764;26.204;2023-03-11T02:27:52;97130.50;;;13.79;100.00
7584;BME280;3833;41.764;26.204;2023-03-11T02:30:21;97125.25;;;13.79;100.00
7584;BME280;3833;41.764;26.204;2023-03-11T02:32:49;97116.38;;;13.64;100.00
7584;BME280;3833;41.764;26.204;2023-03-11T02:35:17;97107.47;;;13.57;100.00
7584;BME280;3833;41.764;26.204;2023-03-11T02:37:45;96962.16;;;12.86;100.00
7584;BME280;3833;41.764;26.204;2023-03-11T02:40:38;97084.59;;;13.67;100.00
7584;BME280;3833;41.764;26.204;2023-03-11T02:43:09;97088.50;;;13.55;100.00
7584;BME280;3833;41.764;26.204;2023-03-11T02:45:37;97093.78;;;13.79;100.00
7584;BME280;3833;41.764;26.204;2023-03-11T02:48:08;97096.91;;;13.82;100.00
7584;BME280;3833;41.764;26.204;2023-03-11T02:50:36;97097.59;;;14.00;100.00
7584;BME280;3833;41.764;26.204;2023-03-11T02:53:03;97094.47;;;14.05;100.00
7584;BME280;3833;41.764;26.204;2023-03-11T02:55:31;97086.19;;;14.25;100.00
7584;BME280;3833;41.764;26.204;2023-03-11T02:57:58;97087.81;;;14.26;100.00
7584;BME280;3833;41.764;26.204;2023-03-11T03:00:26;97100.75;;;14.28;100.00
7584;BME280;3833;41.764;26.204;2023-03-11T03:02:53;97096.44;;;13.95;100.00
7584;BME280;3833;41.764;26.204;2023-03-11T03:05:20;97099.72;;;13.89;100.00
7584;BME280;3833;41.764;26.204;2023-03-11T03:07:47;97086.25;;;13.84;100.00
7584;BME280;3833;41.764;26.204;2023-03-11T03:10:15;97090.50;;;13.77;100.00
7584;BME280;3833;41.764;26.204;2023-03-11T03:12:43;97085.59;;;13.82;100.00
7584;BME280;3833;41.764;26.204;2023-03-11T03:15:10;97084.91;;;13.64;100.00
7584;BME280;3833;41.764;26.204;2023-03-11T03:17:41;97092.81;;;13.88;100.00
7584;BME280;3833;41.764;26.204;2023-03-11T03:20:10;97095.13;;;13.91;100.00
7584;BME280;3833;41.764;26.204;2023-03-11T03:22:37;97094.59;;;13.87;100.00
7584;BME280;3833;41.764;26.204;2023-03-11T03:25:06;97094.41;;;13.65;100.00
7584;BME280;3833;41.764;26.204;2023-03-11T03:27:33;97101.25;;;13.58;100.00
7584;BME280;3833;41.764;26.204;2023-03-11T03:30:00;97101.59;;;13.55;100.00
7584;BME280;3833;41.764;26.204;2023-03-11T03:32:27;97053.28;;;13.57;100.00
7584;BME280;3833;41.764;26.204;2023-03-11T03:34:56;97092.47;;;13.75;100.00
7584;BME280;3833;41.764;26.204;2023-03-11T03:37:24;97068.81;;;13.51;100.00
7584;BME280;3833;41.764;26.204;2023-03-11T03:39:51;97073.94;;;13.76;100.00
7584;BME280;3833;41.764;26.204;2023-03-11T03:42:18;97079.34;;;13.67;100.00
7584;BME280;3833;41.764;26.204;2023-03-11T03:44:45;97080.81;;;13.61;100.00
7584;BME280;3833;41.764;26.204;2023-03-11T03:47:12;96948.88;;;12.80;100.00
7584;BME280;3833;41.764;26.204;2023-03-11T03:49:39;97072.78;;;13.79;100.00
7584;BME280;3833;41.764;26.204;2023-03-11T03:52:07;96956.38;;;13.08;100.00
7584;BME280;3833;41.764;26.204;2023-03-11T03:54:35;97059.84;;;13.77;100.00
7584;BME280;3833;41.764;26.204;2023-03-11T03:57:02;97018.69;;;13.46;100.00
7584;BME280;3833;41.764;26.204;2023-03-11T03:59:29;97066.91;;;13.85;100.00
7584;BME280;3833;41.764;26.204;2023-03-11T04:01:56;97046.72;;;13.69;100.00
7584;BME280;3833;41.764;26.204;2023-03-11T04:04:23;97086.75;;;13.87;100.00
7584;BME280;3833;41.764;26.204;2023-03-11T04:06:50;97081.03;;;14.00;100.00
7584;BME280;3833;41.764;26.204;2023-03-11T04:09:18;97075.13;;;13.90;100.00
7584;BME280;3833;41.764;26.204;2023-03-11T04:11:46;97081.69;;;13.94;100.00
7584;BME280;3833;41.764;26.204;2023-03-11T04:14:13;96895.06;;;12.85;100.00
7584;BME280;3833;41.764;26.204;2023-03-11T04:16:40;96930.00;;;13.02;100.00
7584;BME280;3833;41.764;26.204;2023-03-11T04:19:07;97079.53;;;13.89;100.00
7584;BME280;3833;41.764;26.204;2023-03-11T04:21:34;97058.38;;;13.83;100.00
7584;BME280;3833;41.764;26.204;2023-03-11T04:24:01;96948.00;;;13.05;100.00
7584;BME280;3833;41.764;26.204;2023-03-11T04:26:29;97058.38;;;13.83;100.00
7584;BME280;3833;41.764;26.204;2023-03-11T04:28:56;97058.06;;;13.86;100.00
7584;BME280;3833;41.764;26.204;2023-03-11T04:31:23;97056.91;;;13.88;100.00
7584;BME280;3833;41.764;26.204;2023-03-11T04:33:52;97061.34;;;13.72;100.00
7584;BME280;3833;41.764;26.204;2023-03-11T04:36:19;97015.72;;;13.57;100.00
7584;BME280;3833;41.764;26.204;2023-03-11T04:38:46;97062.63;;;13.76;100.00
7584;BME280;3833;41.764;26.204;2023-03-11T04:41:13;97052.47;;;13.73;100.00
7584;BME280;3833;41.764;26.204;2023-03-11T04:43:41;97038.56;;;13.64;100.00
7584;BME280;3833;41.764;26.204;2023-03-11T04:46:08;97039.66;;;13.62;100.00
7584;BME280;3833;41.764;26.204;2023-03-11T04:48:35;97047.41;;;13.63;100.00
7584;BME280;3833;41.764;26.204;2023-03-11T04:51:02;97030.19;;;13.69;100.00
7584;BME280;3833;41.764;26.204;2023-03-11T04:53:29;97025.63;;;13.95;100.00
7584;BME280;3833;41.764;26.204;2023-03-11T04:55:56;97034.13;;;13.81;100.00
7584;BME280;3833;41.764;26.204;2023-03-11T04:58:23;97036.59;;;13.98;100.00
7584;BME280;3833;41.764;26.204;2023-03-11T05:00:52;97024.63;;;14.12;100.00
7584;BME280;3833;41.764;26.204;2023-03-11T05:03:20;96891.56;;;13.42;100.00
7584;BME280;3833;41.764;26.204;2023-03-11T05:05:47;96976.75;;;14.10;100.00
7584;BME280;3833;41.764;26.204;2023-03-11T05:08:14;96905.81;;;13.63;100.00
7584;BME280;3833;41.764;26.204;2023-03-11T05:10:41;96980.22;;;14.18;100.00
7584;BME280;3833;41.764;26.204;2023-03-11T05:13:09;96904.78;;;13.88;100.00
7584;BME280;3833;41.764;26.204;2023-03-11T05:15:36;97019.66;;;14.64;100.00
7584;BME280;3833;41.764;26.204;2023-03-11T05:18:05;97006.91;;;14.46;100.00
7584;BME280;3833;41.764;26.204;2023-03-11T05:20:31;96952.97;;;14.27;100.00
7584;BME280;3833;41.764;26.204;2023-03-11T05:22:58;97027.03;;;14.69;100.00
7584;BME280;3833;41.764;26.204;2023-03-11T05:25:25;97000.94;;;14.59;100.00
7584;BME280;3833;41.764;26.204;2023-03-11T05:27:52;96993.25;;;14.58;100.00
7584;BME280;3833;41.764;26.204;2023-03-11T05:30:19;96987.00;;;14.67;100.00
7584;BME280;3833;41.764;26.204;2023-03-11T05:32:47;96961.75;;;14.50;100.00
7584;BME280;3833;41.764;26.204;2023-03-11T05:35:17;96985.00;;;14.69;100.00
7584;BME280;3833;41.764;26.204;2023-03-11T05:37:45;96903.63;;;14.23;100.00
7584;BME280;3833;41.764;26.204;2023-03-11T05:40:15;97017.97;;;14.79;100.00
7584;BME280;3833;41.764;26.204;2023-03-11T05:42:42;96986.16;;;14.74;100.00
7584;BME280;3833;41.764;26.204;2023-03-11T05:45:10;97015.59;;;15.00;100.00
7584;BME280;3833;41.764;26.204;2023-03-11T05:47:37;96978.41;;;14.81;100.00
7584;BME280;3833;41.764;26.204;2023-03-11T05:50:07;97009.00;;;15.04;100.00
7584;BME280;3833;41.764;26.204;2023-03-11T05:52:36;96979.31;;;15.04;100.00
7584;BME280;3833;41.764;26.204;2023-03-11T05:55:03;97013.19;;;15.37;100.00
7584;BME280;3833;41.764;26.204;2023-03-11T05:57:31;96869.41;;;14.47;100.00
7584;BME280;3833;41.764;26.204;2023-03-11T05:59:58;97001.69;;;15.30;100.00
7584;BME280;3833;41.764;26.204;2023-03-11T06:02:25;96967.19;;;15.25;100.00
7584;BME280;3833;41.764;26.204;2023-03-11T06:04:52;96997.63;;;15.50;100.00
7584;BME280;3833;41.764;26.204;2023-03-11T06:07:18;97000.22;;;15.58;100.00
7584;BME280;3833;41.764;26.204;2023-03-11T06:09:49;96995.09;;;15.64;100.00
7584;BME280;3833;41.764;26.204;2023-03-11T06:12:16;97002.91;;;15.72;100.00
7584;BME280;3833;41.764;26.204;2023-03-11T06:14:43;96995.47;;;15.98;100.00
7584;BME280;3833;41.764;26.204;2023-03-11T06:17:10;96992.53;;;16.16;100.00
7584;BME280;3833;41.764;26.204;2023-03-11T06:19:37;97006.22;;;16.34;100.00
7584;BME280;3833;41.764;26.204;2023-03-11T06:22:04;97014.53;;;16.60;100.00
7584;BME280;3833;41.764;26.204;2023-03-11T06:24:31;97014.72;;;16.72;100.00
7584;BME280;3833;41.764;26.204;2023-03-11T06:26:59;97021.78;;;16.58;100.00
7584;BME280;3833;41.764;26.204;2023-03-11T06:29:26;97016.72;;;16.70;100.00
7584;BME280;3833;41.764;26.204;2023-03-11T06:31:54;97019.94;;;16.44;100.00
7584;BME280;3833;41.764;26.204;2023-03-11T06:34:21;97021.69;;;16.66;100.00
7584;BME280;3833;41.764;26.204;2023-03-11T06:36:49;97017.81;;;17.05;100.00
7584;BME280;3833;41.764;26.204;2023-03-11T06:39:16;97018.09;;;17.10;100.00
7584;BME280;3833;41.764;26.204;2023-03-11T06:41:43;97012.09;;;16.87;100.00
7584;BME280;3833;41.764;26.204;2023-03-11T06:44:11;97005.78;;;16.45;100.00
7584;BME280;3833;41.764;26.204;2023-03-11T06:46:38;97006.50;;;16.39;100.00
7584;BME280;3833;41.764;26.204;2023-03-11T06:49:06;97001.75;;;15.75;100.00
7584;BME280;3833;41.764;26.204;2023-03-11T06:51:33;96973.94;;;15.58;100.00
7584;BME280;3833;41.764;26.204;2023-03-11T06:54:00;97011.31;;;15.68;100.00
7584;BME280;3833;41.764;26.204;2023-03-11T06:56:28;97007.34;;;15.72;100.00
7584;BME280;3833;41.764;26.204;2023-03-11T06:58:55;97007.81;;;15.98;100.00
7584;BME280;3833;41.764;26.204;2023-03-11T07:01:25;97013.31;;;16.11;100.00
7584;BME280;3833;41.764;26.204;2023-03-11T07:03:55;97026.25;;;15.98;100.00
7584;BME280;3833;41.764;26.204;2023-03-11T07:06:25;97032.47;;;16.42;100.00
7584;BME280;3833;41.764;26.204;2023-03-11T07:08:52;96922.84;;;15.75;100.00
7584;BME280;3833;41.764;26.204;2023-03-11T07:11:21;97045.75;;;16.48;100.00
7584;BME280;3833;41.764;26.204;2023-03-11T07:13:49;97039.38;;;16.43;100.00
7584;BME280;3833;41.764;26.204;2023-03-11T07:16:18;97043.09;;;16.34;100.00
7584;BME280;3833;41.764;26.204;2023-03-11T07:18:47;97045.00;;;16.17;100.00
7584;BME280;3833;41.764;26.204;2023-03-11T07:21:16;97050.09;;;15.96;100.00
7584;BME280;3833;41.764;26.204;2023-03-11T07:23:43;97006.41;;;15.65;100.00
7584;BME280;3833;41.764;26.204;2023-03-11T07:26:12;97025.00;;;15.86;100.00
7584;BME280;3833;41.764;26.204;2023-03-11T07:28:39;97051.16;;;15.87;100.00
7584;BME280;3833;41.764;26.204;2023-03-11T07:31:08;97050.63;;;15.92;100.00
7584;BME280;3833;41.764;26.204;2023-03-11T07:33:35;97044.53;;;16.14;100.00
7584;BME280;3833;41.764;26.204;2023-03-11T07:36:09;97029.66;;;16.21;100.00
7584;BME280;3833;41.764;26.204;2023-03-11T07:38:38;97009.31;;;16.15;100.00
7584;BME280;3833;41.764;26.204;2023-03-11T07:41:05;97035.06;;;16.27;100.00
7584;BME280;3833;41.764;26.204;2023-03-11T07:43:32;97032.44;;;16.27;100.00
7584;BME280;3833;41.764;26.204;2023-03-11T07:46:04;97026.94;;;16.37;100.00
7584;BME280;3833;41.764;26.204;2023-03-11T07:48:32;97025.81;;;16.31;100.00
7584;BME280;3833;41.764;26.204;2023-03-11T07:51:01;97000.50;;;16.08;100.00
7584;BME280;3833;41.764;26.204;2023-03-11T07:53:33;97027.22;;;16.19;100.00
7584;BME280;3833;41.764;26.204;2023-03-11T07:56:00;97017.75;;;16.33;100.00
7584;BME280;3833;41.764;26.204;2023-03-11T07:58:30;97023.94;;;16.40;100.00
7584;BME280;3833;41.764;26.204;2023-03-11T08:01:02;96970.34;;;16.33;100.00
7584;BME280;3833;41.764;26.204;2023-03-11T08:03:29;97025.06;;;16.60;100.00
7584;BME280;3833;41.764;26.204;2023-03-11T08:05:56;97025.69;;;16.47;100.00
7584;BME280;3833;41.764;26.204;2023-03-11T08:08:24;97000.16;;;16.48;100.00
7584;BME280;3833;41.764;26.204;2023-03-11T08:10:52;97018.63;;;16.91;100.00
7584;BME280;3833;41.764;26.204;2023-03-11T08:13:19;96981.69;;;17.05;100.00
7584;BME280;3833;41.764;26.204;2023-03-11T08:15:46;96972.78;;;17.21;100.00
7584;BME280;3833;41.764;26.204;2023-03-11T08:18:13;97005.34;;;17.42;100.00
7584;BME280;3833;41.764;26.204;2023-03-11T08:20:43;97002.97;;;17.89;100.00
7584;BME280;3833;41.764;26.204;2023-03-11T08:23:10;97000.06;;;18.05;99.00
7584;BME280;3833;41.764;26.204;2023-03-11T08:25:38;97004.94;;;18.50;95.15
7584;BME280;3833;41.764;26.204;2023-03-11T08:28:07;96992.97;;;18.81;93.39
7584;BME280;3833;41.764;26.204;2023-03-11T08:30:34;96986.88;;;18.81;88.36
7584;BME280;3833;41.764;26.204;2023-03-11T08:33:02;96994.19;;;18.79;86.71
7584;BME280;3833;41.764;26.204;2023-03-11T08:35:29;96986.31;;;19.25;86.89
7584;BME280;3833;41.764;26.204;2023-03-11T08:37:59;96987.22;;;19.45;82.54
7584;BME280;3833;41.764;26.204;2023-03-11T08:40:26;96974.91;;;19.25;81.51
7584;BME280;3833;41.764;26.204;2023-03-11T08:42:54;96970.47;;;19.38;78.98
7584;BME280;3833;41.764;26.204;2023-03-11T08:45:22;96964.97;;;19.33;77.71
7584;BME280;3833;41.764;26.204;2023-03-11T08:47:49;96956.38;;;20.23;76.23
7584;BME280;3833;41.764;26.204;2023-03-11T08:50:18;96957.56;;;19.76;76.24
7584;BME280;3833;41.764;26.204;2023-03-11T08:52:46;96948.78;;;19.88;77.29
7584;BME280;3833;41.764;26.204;2023-03-11T08:55:15;96889.13;;;19.66;70.51
7584;BME280;3833;41.764;26.204;2023-03-11T08:57:50;96835.09;;;19.22;69.86
7584;BME280;3833;41.764;26.204;2023-03-11T09:00:18;96937.19;;;19.89;71.61
7584;BME280;3833;41.764;26.204;2023-03-11T09:02:46;96723.69;;;19.94;65.93
7584;BME280;3833;41.764;26.204;2023-03-11T09:05:14;96924.47;;;20.95;64.97
7584;BME280;3833;41.764;26.204;2023-03-11T09:07:41;96929.81;;;19.59;71.08
7584;BME280;3833;41.764;26.204;2023-03-11T09:10:11;96914.66;;;19.14;70.44
7584;BME280;3833;41.764;26.204;2023-03-11T09:12:39;96943.75;;;19.20;71.14
7584;BME280;3833;41.764;26.204;2023-03-11T09:15:07;96944.09;;;19.11;72.32
7584;BME280;3833;41.764;26.204;2023-03-11T09:17:35;96939.72;;;18.90;73.30
7584;BME280;3833;41.764;26.204;2023-03-11T09:20:04;96934.97;;;19.13;73.40
7584;BME280;3833;41.764;26.204;2023-03-11T09:22:32;96924.25;;;18.87;74.14
7584;BME280;3833;41.764;26.204;2023-03-11T09:24:58;96938.31;;;19.35;75.15
7584;BME280;3833;41.764;26.204;2023-03-11T09:27:27;96817.97;;;18.18;71.72
7584;BME280;3833;41.764;26.204;2023-03-11T09:29:54;96926.59;;;19.03;73.81
7584;BME280;3833;41.764;26.204;2023-03-11T09:32:21;96915.00;;;18.64;74.95
7584;BME280;3833;41.764;26.204;2023-03-11T09:34:49;96920.56;;;18.42;76.69
7584;BME280;3833;41.764;26.204;2023-03-11T09:37:17;96922.69;;;18.25;76.94
7584;BME280;3833;41.764;26.204;2023-03-11T09:39:44;96930.53;;;18.19;76.39
7584;BME280;3833;41.764;26.204;2023-03-11T09:42:18;96807.63;;;17.34;76.52
7584;BME280;3833;41.764;26.204;2023-03-11T09:44:53;96922.00;;;18.44;76.37
7584;BME280;3833;41.764;26.204;2023-03-11T09:47:35;96883.22;;;17.96;76.51
7584;BME280;3833;41.764;26.204;2023-03-11T09:50:11;96928.59;;;18.27;76.32
7584;BME280;3833;41.764;26.204;2023-03-11T09:52:44;96929.16;;;18.23;78.05
7584;BME280;3833;41.764;26.204;2023-03-11T09:55:42;96915.31;;;18.21;77.38
7584;BME280;3833;41.764;26.204;2023-03-11T09:58:13;96937.81;;;18.17;74.89
7584;BME280;3833;41.764;26.204;2023-03-11T10:00:42;96938.94;;;18.29;74.82
7584;BME280;3833;41.764;26.204;2023-03-11T10:03:26;96899.59;;;18.13;75.64
7584;BME280;3833;41.764;26.204;2023-03-11T10:06:02;96930.22;;;18.28;75.65
7584;BME280;3833;41.764;26.204;2023-03-11T10:08:39;96929.81;;;18.59;74.20
7584;BME280;3833;41.764;26.204;2023-03-11T10:11:21;96897.97;;;18.39;73.64
7584;BME280;3833;41.764;26.204;2023-03-11T10:13:59;96927.28;;;18.44;74.35
7584;BME280;3833;41.764;26.204;2023-03-11T10:16:33;96820.25;;;17.66;73.51
7584;BME280;3833;41.764;26.204;2023-03-11T10:19:10;96935.69;;;18.27;72.94
7584;BME280;3833;41.764;26.204;2023-03-11T10:21:47;96929.28;;;18.42;72.79
7584;BME280;3833;41.764;26.204;2023-03-11T10:24:35;96910.13;;;18.34;74.16
7584;BME280;3833;41.764;26.204;2023-03-11T10:27:09;96929.94;;;18.51;73.00
7584;BME280;3833;41.764;26.204;2023-03-11T10:29:43;96792.03;;;16.97;77.23
7584;BME280;3833;41.764;26.204;2023-03-11T10:32:17;96812.59;;;16.87;78.34
7584;BME280;3833;41.764;26.204;2023-03-11T10:34:49;96916.75;;;17.96;79.28
7584;BME280;3833;41.764;26.204;2023-03-11T10:37:22;96875.28;;;17.69;79.30
7584;BME280;3833;41.764;26.204;2023-03-11T10:39:52;96918.88;;;17.86;79.90
7584;BME280;3833;41.764;26.204;2023-03-11T10:42:20;96919.84;;;18.06;79.83
7584;BME280;3833;41.764;26.204;2023-03-11T10:44:48;96797.06;;;17.34;79.82
7584;BME280;3833;41.764;26.204;2023-03-11T10:47:17;96915.97;;;18.02;80.42
7584;BME280;3833;41.764;26.204;2023-03-11T10:49:45;96828.91;;;17.81;80.27
7584;BME280;3833;41.764;26.204;2023-03-11T10:52:12;96920.34;;;18.43;81.48
7584;BME280;3833;41.764;26.204;2023-03-11T10:54:40;96910.41;;;18.18;82.37
7584;BME280;3833;41.764;26.204;2023-03-11T10:57:23;96889.91;;;18.20;80.25
7584;BME280;3833;41.764;26.204;2023-03-11T10:59:52;96909.75;;;18.37;82.03
7584;BME280;3833;41.764;26.204;2023-03-11T11:02:23;96912.19;;;18.38;80.97
7584;BME280;3833;41.764;26.204;2023-03-11T11:05:03;96907.97;;;18.44;79.79
7584;BME280;3833;41.764;26.204;2023-03-11T11:07:33;96901.47;;;18.86;77.81
7584;BME280;3833;41.764;26.204;2023-03-11T11:10:15;96915.81;;;18.65;77.70
7584;BME280;3833;41.764;26.204;2023-03-11T11:12:54;96872.56;;;18.79;78.03
7584;BME280;3833;41.764;26.204;2023-03-11T11:15:23;96816.81;;;18.67;74.26
7584;BME280;3833;41.764;26.204;2023-03-11T11:17:51;96774.81;;;19.11;72.77
7584;BME280;3833;41.764;26.204;2023-03-11T11:20:21;96818.63;;;19.52;71.36
7584;BME280;3833;41.764;26.204;2023-03-11T11:22:51;96869.97;;;19.64;72.10
7584;BME280;3833;41.764;26.204;2023-03-11T11:25:30;96885.84;;;19.77;71.81
7584;BME280;3833;41.764;26.204;2023-03-11T11:28:01;96892.72;;;19.46;71.67
7584;BME280;3833;41.764;26.204;2023-03-11T11:30:30;96896.63;;;19.63;70.26
7584;BME280;3833;41.764;26.204;2023-03-11T11:33:20;96887.44;;;19.33;70.35
7584;BME280;3833;41.764;26.204;2023-03-11T11:35:49;96766.69;;;18.33;69.95
7584;BME280;3833;41.764;26.204;2023-03-11T11:38:21;96887.66;;;19.44;70.59
7584;BME280;3833;41.764;26.204;2023-03-11T11:40:50;96884.84;;;20.17;68.02
7584;BME280;3833;41.764;26.204;2023-03-11T11:43:21;96847.13;;;20.28;66.03
7584;BME280;3833;41.764;26.204;2023-03-11T11:45:54;96889.53;;;20.34;66.29
7584;BME280;3833;41.764;26.204;2023-03-11T11:48:26;96883.00;;;20.24;66.63
7584;BME280;3833;41.764;26.204;2023-03-11T11:50:57;96880.97;;;19.87;66.95
7584;BME280;3833;41.764;26.204;2023-03-11T11:53:30;96877.69;;;19.79;67.94
7584;BME280;3833;41.764;26.204;2023-03-11T11:56:00;96880.75;;;19.82;68.61
7584;BME280;3833;41.764;26.204;2023-03-11T11:58:38;96877.69;;;19.72;69.07
7584;BME280;3833;41.764;26.204;2023-03-11T12:01:18;96870.59;;;20.05;68.07
7584;BME280;3833;41.764;26.204;2023-03-11T12:04:18;96874.03;;;19.73;67.96
7584;BME280;3833;41.764;26.204;2023-03-11T12:06:50;96872.19;;;19.41;67.49
7584;BME280;3833;41.764;26.204;2023-03-11T12:09:25;96852.81;;;19.21;68.10
7584;BME280;3833;41.764;26.204;2023-03-11T12:12:02;96872.19;;;18.82;69.36
7584;BME280;3833;41.764;26.204;2023-03-11T12:14:39;96874.06;;;19.00;70.07
7584;BME280;3833;41.764;26.204;2023-03-11T12:17:13;96869.41;;;19.02;69.67
7584;BME280;3833;41.764;26.204;2023-03-11T12:19:46;96873.25;;;19.06;69.02
7584;BME280;3833;41.764;26.204;2023-03-11T12:22:40;96855.63;;;19.26;68.22
7584;BME280;3833;41.764;26.204;2023-03-11T12:25:20;96877.72;;;19.85;65.87
7584;BME280;3833;41.764;26.204;2023-03-11T12:27:52;96887.09;;;20.00;65.45
7584;BME280;3833;41.764;26.204;2023-03-11T12:30:24;96874.84;;;19.93;65.30
7584;BME280;3833;41.764;26.204;2023-03-11T12:32:55;96880.91;;;20.45;64.11
7584;BME280;3833;41.764;26.204;2023-03-11T12:35:26;96865.09;;;19.87;64.33
7584;BME280;3833;41.764;26.204;2023-03-11T12:38:00;96878.88;;;19.24;63.58
7584;BME280;3833;41.764;26.204;2023-03-11T12:40:49;96879.94;;;19.75;63.25
7584;BME280;3833;41.764;26.204;2023-03-11T12:43:24;96872.19;;;19.54;64.54
7584;BME280;3833;41.764;26.204;2023-03-11T12:45:56;96845.31;;;19.57;63.95
7584;BME280;3833;41.764;26.204;2023-03-11T12:48:33;96891.50;;;19.48;64.21
7584;BME280;3833;41.764;26.204;2023-03-11T12:51:01;96888.25;;;18.86;66.81
7584;BME280;3833;41.764;26.204;2023-03-11T12:53:46;96927.25;;;18.38;71.29
7584;BME280;3833;41.764;26.204;2023-03-11T12:56:21;96969.97;;;17.99;75.61
7584;BME280;3833;41.764;26.204;2023-03-11T12:59:08;96915.16;;;17.03;88.30
7584;BME280;3833;41.764;26.204;2023-03-11T13:02:10;96855.09;;;16.20;100.00
7584;BME280;3833;41.764;26.204;2023-03-11T13:04:50;96894.22;;;16.09;100.00
7584;BME280;3833;41.764;26.204;2023-03-11T13:07:38;96913.59;;;15.79;100.00
7584;BME280;3833;41.764;26.204;2023-03-11T13:10:16;96902.84;;;15.66;100.00
7584;BME280;3833;41.764;26.204;2023-03-11T13:12:45;96906.75;;;16.07;100.00
7584;BME280;3833;41.764;26.204;2023-03-11T13:15:34;96908.78;;;16.34;100.00
7584;BME280;3833;41.764;26.204;2023-03-11T13:18:14;96865.75;;;16.56;100.00
7584;BME280;3833;41.764;26.204;2023-03-11T13:20:55;96875.91;;;16.59;100.00
7584;BME280;3833;41.764;26.204;2023-03-11T13:23:29;96902.19;;;16.38;100.00